Silver Bay, Minnesota
Current Conditions -  °F | °C
As of 10:54 PM on Thursday 30 Oct 2014 (Local Time) from KBFW Reporting Station
Clear Clear  
Wind Chill: 23°   Ceiling: Unl
Heat Index: 30°   Visibility: 10mi
Dew Point: 19°   Wind: 8mph
Humidity: 64%   Direction: 330°NNW
Pressure: 30.26"   Gusts: 23mph
Location:  47.29°N, 91.26°W
Report Text: KBFW 310354Z AUTO 33007G20KT 290V350 10SM CLR M01/M07 A3026 RMK AO2
Loading
Personal Weather Stations






























Interactive Weather Map
Tropical Storm Tracking
New forecast layout! Learn more

10-Day Weather Forecast

Advertisements
Track Severe Weather on mobile